• Join FlightAware (Why Join?)
  • Login
  • US Flag 
10:59PM EDT


 

Airport Tracker/Info


-or-


 

Live Flight TrackerFlight Track Log ✈ DAL6116 ✈ 30-Apr-2013 ✈ KJFK - KRIC

Flight Track Log - Related Links

Times and Time Zones

All times are in EDT time to prevent confusion due to time zone crossing. See the DAL6116 flight status page for this flight to view local times or setup timezone preferences in your user account.

Time Position Orientation Groundspeed Altitude Reporting Facility
EDT Latitude Longitude Course Direction KTS MPH feet Rate Location/Type
03:03PM 40.6167 -73.7833 153° Southeast 165 190 1,900  Level New York TRACON
03:04PM 40.5667 -73.7500 153° Southeast 247 284 3,600 1,560 Climbing New York TRACON
03:05PM 40.5333 -73.6500 114° Southeast 256 295 5,100 660 Climbing New York TRACON
03:06PM 40.5000 -73.5667 118° Southeast 253 291 5,100 1,080 Level New York TRACON
03:07PM 40.4500 -73.5000 135° Southeast 268 308 7,300 1,920 Climbing New York TRACON
03:09PM 40.3067 -73.4300 160° South 291 335 11,100 1,740 Climbing New York Center
03:10PM 40.2097 -73.3856 161° South 325 374 12,800 1,500 Climbing New York Center
03:11PM 40.1297 -73.4206 198° South 331 381 14,200 1,440 Climbing New York Center
03:12PM 40.0364 -73.4956 212° Southwest 348 400 15,800 1,320 Climbing New York Center
03:13PM 39.9517 -73.5572 209° Southwest 375 432 16,900 1,080 Climbing New York Center
03:14PM 39.8525 -73.5992 198° South 375 432 18,000 1,080 Climbing New York Center
03:15PM 39.7472 -73.6436 198° South 387 445 19,100 1,200 Climbing New York Center
03:16PM 39.6419 -73.6906 199° South 394 453 20,400 1,320 Climbing New York Center
03:16PM 39.6047 -73.7036 195° South 397 457 20,900 1,140 Climbing Washington Center
03:17PM 39.5186 -73.7864 217° Southwest 384 442 22,000 540 Climbing Washington Center
03:18PM 39.4600 -73.9142 239° Southwest 377 434 22,000  Level Washington Center
03:19PM 39.3928 -74.0394 235° Southwest 405 466 22,000  Level Washington Center
03:20PM 39.3003 -74.1381 220° Southwest 420 483 22,000  Level Washington Center
03:21PM 39.2078 -74.2283 217° Southwest 431 496 22,000  Level Washington Center
03:22PM 39.1128 -74.3236 218° Southwest 436 502 22,000  Level Washington Center
03:23PM 39.0117 -74.4242 218° Southwest 431 496 22,000  Level Washington Center
03:24PM 38.9147 -74.5164 217° Southwest 431 496 22,000  Level Washington Center
03:25PM 38.8217 -74.6083 218° Southwest 431 496 22,000  Level Washington Center
03:26PM 38.7264 -74.7003 217° Southwest 431 496 22,000  Level Washington Center
03:27PM 38.6311 -74.7892 216° Southwest 431 496 22,000  Level Washington Center
03:28PM 38.5358 -74.8778 216° Southwest 431 496 22,000  Level Washington Center
03:29PM 38.4425 -74.9742 219° Southwest 431 496 22,000  Level Washington Center
03:30PM 38.3469 -75.0622 216° Southwest 431 496 22,000 -420 Level Washington Center
03:31PM 38.2558 -75.1608 220° Southwest 431 496 21,200 -1,440 Descending Washington Center
03:32PM 38.1622 -75.2431 215° Southwest 431 496 19,200 -1,920 Descending Washington Center
03:33PM 38.0706 -75.3333 218° Southwest 426 490 17,400 -1,680 Descending Washington Center
03:34PM 37.9811 -75.4125 215° Southwest 419 482 16,000 -720 Descending Washington Center
03:35PM 37.8917 -75.4997 218° Southwest 408 470 16,000  Level Washington Center
03:36PM 37.7997 -75.5839 216° Southwest 413 475 16,000  Level Washington Center
03:37PM 37.7100 -75.6678 216° Southwest 413 475 16,000  Level Washington Center
03:38PM 37.6225 -75.7517 217° Southwest 408 470 16,000 -60 Level Washington Center
03:39PM 37.5347 -75.8353 217° Southwest 408 470 15,900 -480 Descending Washington Center
03:40PM 37.5158 -75.8719 237° Southwest 400 460 15,400 -2,040 Descending Washington Center
03:40PM 37.4739 -75.9531 237° Southwest 394 453 13,900 -1,920 Descending Washington Center
03:41PM 37.4153 -76.0625 236° Southwest 394 453 12,200 -960 Descending Washington Center
03:42PM 37.3542 -76.1692 234° Southwest 389 448 12,000 -600 Descending Washington Center
03:43PM 37.3411 -76.2789 262° West 332 382 11,100 -1,260 Descending Washington Center
03:44PM 37.3428 -76.3678 271° West 308 354 9,500 -1,500 Descending Washington Center
03:45PM 37.3442 -76.4617 271° West 289 333 8,100 -720 Descending Washington Center
03:46PM 37.3414 -76.5583 268° West 283 326 8,100  Level Washington Center
03:47PM 37.3258 -76.6547 259° West 283 326 8,100  Level Washington Center
03:49PM 37.2833 -76.8000 250° West 275 316 8,100 -240 Level Potomac TRACON
03:50PM 37.2500 -76.9000 247° West 279 321 7,600 -1,200 Descending Potomac TRACON
03:51PM 37.2500 -76.9833 270° West 266 306 5,700 -1,620 Descending Potomac TRACON
03:52PM 37.2833 -77.0667 297° West 262 302 4,400 -900 Descending Potomac TRACON
03:53PM 37.2833 -77.1333 270° West 219 252 4,000 -180 Descending Potomac TRACON
03:54PM 37.3000 -77.2000 287° West 185 213 4,100 -300 Climbing Potomac TRACON
03:55PM 37.3500 -77.2000 360° North 179 206 3,500 -720 Descending Potomac TRACON